sensor_id;sensor_type;location;lat;lon;timestamp;temperature;humidity
40255;DHT22;25973;52.368;4.940;2023-02-05T00:00:05;10.40;99.90
40255;DHT22;25973;52.368;4.940;2023-02-05T00:02:31;10.50;99.90
40255;DHT22;25973;52.368;4.940;2023-02-05T00:04:57;10.50;99.90
40255;DHT22;25973;52.368;4.940;2023-02-05T00:07:22;10.50;99.90
40255;DHT22;25973;52.368;4.940;2023-02-05T00:09:48;10.50;99.90
40255;DHT22;25973;52.368;4.940;2023-02-05T00:12:14;10.40;99.90
40255;DHT22;25973;52.368;4.940;2023-02-05T00:14:40;10.40;99.90
40255;DHT22;25973;52.368;4.940;2023-02-05T00:17:05;10.40;99.90
40255;DHT22;25973;52.368;4.940;2023-02-05T00:19:31;10.40;99.90
40255;DHT22;25973;52.368;4.940;2023-02-05T00:21:57;10.40;99.90
40255;DHT22;25973;52.368;4.940;2023-02-05T00:24:22;10.40;99.90
40255;DHT22;25973;52.368;4.940;2023-02-05T00:26:48;10.40;99.90
40255;DHT22;25973;52.368;4.940;2023-02-05T00:29:14;10.40;99.90
40255;DHT22;25973;52.368;4.940;2023-02-05T00:31:39;10.40;99.90
40255;DHT22;25973;52.368;4.940;2023-02-05T00:34:05;10.40;99.90
40255;DHT22;25973;52.368;4.940;2023-02-05T00:36:31;10.40;99.90
40255;DHT22;25973;52.368;4.940;2023-02-05T00:38:56;10.40;99.90
40255;DHT22;25973;52.368;4.940;2023-02-05T00:41:22;10.40;99.90
40255;DHT22;25973;52.368;4.940;2023-02-05T00:43:47;10.40;99.90
40255;DHT22;25973;52.368;4.940;2023-02-05T00:46:13;10.40;99.90
40255;DHT22;25973;52.368;4.940;2023-02-05T00:48:40;10.40;99.90
40255;DHT22;25973;52.368;4.940;2023-02-05T00:51:06;10.30;99.90
40255;DHT22;25973;52.368;4.940;2023-02-05T00:53:32;10.30;99.90
40255;DHT22;25973;52.368;4.940;2023-02-05T00:55:58;10.30;99.90
40255;DHT22;25973;52.368;4.940;2023-02-05T00:58:23;10.30;99.90
40255;DHT22;25973;52.368;4.940;2023-02-05T01:00:50;10.30;99.90
40255;DHT22;25973;52.368;4.940;2023-02-05T01:03:16;10.20;99.90
40255;DHT22;25973;52.368;4.940;2023-02-05T01:05:42;10.20;99.90
40255;DHT22;25973;52.368;4.940;2023-02-05T01:08:09;10.20;99.90
40255;DHT22;25973;52.368;4.940;2023-02-05T01:10:35;10.20;99.90
40255;DHT22;25973;52.368;4.940;2023-02-05T01:13:02;10.20;99.90
40255;DHT22;25973;52.368;4.940;2023-02-05T01:15:28;10.10;99.90
40255;DHT22;25973;52.368;4.940;2023-02-05T01:17:53;10.10;99.90
40255;DHT22;25973;52.368;4.940;2023-02-05T01:20:19;10.10;99.90
40255;DHT22;25973;52.368;4.940;2023-02-05T01:22:46;10.10;99.90
40255;DHT22;25973;52.368;4.940;2023-02-05T01:25:12;10.10;99.90
40255;DHT22;25973;52.368;4.940;2023-02-05T01:27:37;10.10;99.90
40255;DHT22;25973;52.368;4.940;2023-02-05T01:30:04;10.10;99.90
40255;DHT22;25973;52.368;4.940;2023-02-05T01:32:30;10.10;99.90
40255;DHT22;25973;52.368;4.940;2023-02-05T01:34:55;10.10;99.90
40255;DHT22;25973;52.368;4.940;2023-02-05T01:37:21;10.10;99.90
40255;DHT22;25973;52.368;4.940;2023-02-05T01:39:46;10.00;99.90
40255;DHT22;25973;52.368;4.940;2023-02-05T01:42:19;10.00;99.90
40255;DHT22;25973;52.368;4.940;2023-02-05T01:47:47;9.90;99.90
40255;DHT22;25973;52.368;4.940;2023-02-05T01:50:13;9.80;99.90
40255;DHT22;25973;52.368;4.940;2023-02-05T01:52:39;9.80;99.90
40255;DHT22;25973;52.368;4.940;2023-02-05T01:55:06;9.80;99.90
40255;DHT22;25973;52.368;4.940;2023-02-05T01:57:33;9.80;99.90
40255;DHT22;25973;52.368;4.940;2023-02-05T01:59:58;9.90;99.90
40255;DHT22;25973;52.368;4.940;2023-02-05T02:02:24;9.80;99.90
40255;DHT22;25973;52.368;4.940;2023-02-05T02:04:53;9.80;99.90
40255;DHT22;25973;52.368;4.940;2023-02-05T02:07:22;9.90;99.90
40255;DHT22;25973;52.368;4.940;2023-02-05T02:09:49;9.90;99.90
40255;DHT22;25973;52.368;4.940;2023-02-05T02:12:21;9.90;99.90
40255;DHT22;25973;52.368;4.940;2023-02-05T02:14:51;9.90;99.90
40255;DHT22;25973;52.368;4.940;2023-02-05T02:17:19;9.90;99.90
40255;DHT22;25973;52.368;4.940;2023-02-05T02:20:01;9.90;99.90
40255;DHT22;25973;52.368;4.940;2023-02-05T02:28:16;9.80;99.90
40255;DHT22;25973;52.368;4.940;2023-02-05T02:30:47;9.80;99.90
40255;DHT22;25973;52.368;4.940;2023-02-05T02:33:40;9.80;99.90
40255;DHT22;25973;52.368;4.940;2023-02-05T02:36:08;9.70;99.90
40255;DHT22;25973;52.368;4.940;2023-02-05T02:38:43;9.70;99.90
40255;DHT22;25973;52.368;4.940;2023-02-05T02:41:27;9.80;99.90
40255;DHT22;25973;52.368;4.940;2023-02-05T02:43:58;9.70;99.90
40255;DHT22;25973;52.368;4.940;2023-02-05T02:46:32;9.80;99.90
40255;DHT22;25973;52.368;4.940;2023-02-05T02:49:04;9.80;99.90
40255;DHT22;25973;52.368;4.940;2023-02-05T02:51:30;9.80;99.90
40255;DHT22;25973;52.368;4.940;2023-02-05T02:53:59;9.80;99.90
40255;DHT22;25973;52.368;4.940;2023-02-05T02:56:27;9.80;99.90
40255;DHT22;25973;52.368;4.940;2023-02-05T02:59:02;9.80;99.90
40255;DHT22;25973;52.368;4.940;2023-02-05T03:01:32;9.90;99.90
40255;DHT22;25973;52.368;4.940;2023-02-05T03:04:06;9.80;99.90
40255;DHT22;25973;52.368;4.940;2023-02-05T03:06:33;9.80;99.90
40255;DHT22;25973;52.368;4.940;2023-02-05T03:09:09;9.80;99.90
40255;DHT22;25973;52.368;4.940;2023-02-05T03:11:36;9.80;99.90
40255;DHT22;25973;52.368;4.940;2023-02-05T03:14:02;9.80;99.90
40255;DHT22;25973;52.368;4.940;2023-02-05T03:16:28;9.80;99.90
40255;DHT22;25973;52.368;4.940;2023-02-05T03:18:55;9.80;99.90
40255;DHT22;25973;52.368;4.940;2023-02-05T03:21:31;9.70;99.90
40255;DHT22;25973;52.368;4.940;2023-02-05T03:23:58;9.70;99.90
40255;DHT22;25973;52.368;4.940;2023-02-05T03:26:34;9.70;99.90
40255;DHT22;25973;52.368;4.940;2023-02-05T03:29:02;9.60;99.90
40255;DHT22;25973;52.368;4.940;2023-02-05T03:40:30;9.50;99.90
40255;DHT22;25973;52.368;4.940;2023-02-05T03:46:02;9.30;99.90
40255;DHT22;25973;52.368;4.940;2023-02-05T03:59:03;9.30;99.90
40255;DHT22;25973;52.368;4.940;2023-02-05T04:01:29;9.20;99.90
40255;DHT22;25973;52.368;4.940;2023-02-05T04:03:55;9.20;99.90
40255;DHT22;25973;52.368;4.940;2023-02-05T04:06:20;9.20;99.90
40255;DHT22;25973;52.368;4.940;2023-02-05T04:08:46;9.20;99.90
40255;DHT22;25973;52.368;4.940;2023-02-05T04:11:13;9.20;99.90
40255;DHT22;25973;52.368;4.940;2023-02-05T04:13:38;9.20;99.90
40255;DHT22;25973;52.368;4.940;2023-02-05T04:16:04;9.10;99.90
40255;DHT22;25973;52.368;4.940;2023-02-05T04:18:30;9.00;99.90
40255;DHT22;25973;52.368;4.940;2023-02-05T04:20:55;9.00;99.90
40255;DHT22;25973;52.368;4.940;2023-02-05T04:23:21;8.90;99.90
40255;DHT22;25973;52.368;4.940;2023-02-05T04:25:51;8.90;99.90
40255;DHT22;25973;52.368;4.940;2023-02-05T04:28:17;8.80;99.90
40255;DHT22;25973;52.368;4.940;2023-02-05T04:30:45;8.80;99.90
40255;DHT22;25973;52.368;4.940;2023-02-05T04:33:10;8.70;99.90
40255;DHT22;25973;52.368;4.940;2023-02-05T04:35:36;8.70;99.90
40255;DHT22;25973;52.368;4.940;2023-02-05T04:38:01;8.70;99.90
40255;DHT22;25973;52.368;4.940;2023-02-05T04:40:27;8.70;99.90
40255;DHT22;25973;52.368;4.940;2023-02-05T04:42:53;8.70;99.90
40255;DHT22;25973;52.368;4.940;2023-02-05T04:45:18;8.70;99.90
40255;DHT22;25973;52.368;4.940;2023-02-05T04:47:44;8.70;99.90
40255;DHT22;25973;52.368;4.940;2023-02-05T04:50:09;8.70;99.90
40255;DHT22;25973;52.368;4.940;2023-02-05T04:52:35;8.60;99.90
40255;DHT22;25973;52.368;4.940;2023-02-05T04:55:00;8.60;99.90
40255;DHT22;25973;52.368;4.940;2023-02-05T04:57:26;8.60;99.90
40255;DHT22;25973;52.368;4.940;2023-02-05T04:59:53;8.60;99.90
40255;DHT22;25973;52.368;4.940;2023-02-05T05:02:19;8.60;99.90
40255;DHT22;25973;52.368;4.940;2023-02-05T05:04:44;8.60;99.90
40255;DHT22;25973;52.368;4.940;2023-02-05T05:07:10;8.50;99.90
40255;DHT22;25973;52.368;4.940;2023-02-05T05:09:36;8.40;99.90
40255;DHT22;25973;52.368;4.940;2023-02-05T05:12:02;8.30;99.90
40255;DHT22;25973;52.368;4.940;2023-02-05T05:14:27;8.30;99.90
40255;DHT22;25973;52.368;4.940;2023-02-05T05:16:53;8.30;99.90
40255;DHT22;25973;52.368;4.940;2023-02-05T05:19:18;8.20;99.90
40255;DHT22;25973;52.368;4.940;2023-02-05T05:21:44;8.20;99.90
40255;DHT22;25973;52.368;4.940;2023-02-05T05:24:09;8.20;99.90
40255;DHT22;25973;52.368;4.940;2023-02-05T05:26:35;8.00;99.90
40255;DHT22;25973;52.368;4.940;2023-02-05T05:29:02;8.00;99.90
40255;DHT22;25973;52.368;4.940;2023-02-05T05:31:27;8.10;99.90
40255;DHT22;25973;52.368;4.940;2023-02-05T05:33:53;8.00;99.90
40255;DHT22;25973;52.368;4.940;2023-02-05T05:36:19;8.00;99.90
40255;DHT22;25973;52.368;4.940;2023-02-05T05:38:44;8.00;99.90
40255;DHT22;25973;52.368;4.940;2023-02-05T05:41:17;7.90;99.90
40255;DHT22;25973;52.368;4.940;2023-02-05T05:44:02;7.90;99.90
40255;DHT22;25973;52.368;4.940;2023-02-05T05:46:27;7.90;99.90
40255;DHT22;25973;52.368;4.940;2023-02-05T05:48:55;7.90;99.90
40255;DHT22;25973;52.368;4.940;2023-02-05T05:51:22;7.90;99.90
40255;DHT22;25973;52.368;4.940;2023-02-05T05:53:47;7.90;99.90
40255;DHT22;25973;52.368;4.940;2023-02-05T05:56:14;7.90;99.90
40255;DHT22;25973;52.368;4.940;2023-02-05T05:58:40;7.90;99.90
40255;DHT22;25973;52.368;4.940;2023-02-05T06:01:06;7.90;99.90
40255;DHT22;25973;52.368;4.940;2023-02-05T06:03:32;7.90;99.90
40255;DHT22;25973;52.368;4.940;2023-02-05T06:06:06;7.80;99.90
40255;DHT22;25973;52.368;4.940;2023-02-05T06:08:34;7.80;99.90
40255;DHT22;25973;52.368;4.940;2023-02-05T06:10:59;7.80;99.90
40255;DHT22;25973;52.368;4.940;2023-02-05T06:13:25;7.80;99.90
40255;DHT22;25973;52.368;4.940;2023-02-05T06:15:51;7.80;99.90
40255;DHT22;25973;52.368;4.940;2023-02-05T06:18:19;7.80;99.90
40255;DHT22;25973;52.368;4.940;2023-02-05T06:20:45;7.80;99.90
40255;DHT22;25973;52.368;4.940;2023-02-05T06:23:11;7.90;99.90
40255;DHT22;25973;52.368;4.940;2023-02-05T06:25:36;7.90;99.90
40255;DHT22;25973;52.368;4.940;2023-02-05T06:28:02;7.80;99.90
40255;DHT22;25973;52.368;4.940;2023-02-05T06:30:28;7.80;99.90
40255;DHT22;25973;52.368;4.940;2023-02-05T06:32:53;7.80;99.90
40255;DHT22;25973;52.368;4.940;2023-02-05T06:35:19;7.80;99.90
40255;DHT22;25973;52.368;4.940;2023-02-05T06:37:44;7.80;99.90
40255;DHT22;25973;52.368;4.940;2023-02-05T06:40:10;7.80;99.90
40255;DHT22;25973;52.368;4.940;2023-02-05T06:42:36;7.80;99.90
40255;DHT22;25973;52.368;4.940;2023-02-05T06:45:02;7.80;99.90
40255;DHT22;25973;52.368;4.940;2023-02-05T06:47:28;7.80;99.90
40255;DHT22;25973;52.368;4.940;2023-02-05T06:49:53;7.90;99.90
40255;DHT22;25973;52.368;4.940;2023-02-05T06:52:19;7.90;99.90
40255;DHT22;25973;52.368;4.940;2023-02-05T06:54:44;7.90;99.90
40255;DHT22;25973;52.368;4.940;2023-02-05T06:57:10;7.90;99.90
40255;DHT22;25973;52.368;4.940;2023-02-05T06:59:36;7.90;99.90
40255;DHT22;25973;52.368;4.940;2023-02-05T07:02:02;7.90;99.90
40255;DHT22;25973;52.368;4.940;2023-02-05T07:04:27;7.90;99.90
40255;DHT22;25973;52.368;4.940;2023-02-05T07:09:30;7.80;99.90
40255;DHT22;25973;52.368;4.940;2023-02-05T07:11:56;7.80;99.90
40255;DHT22;25973;52.368;4.940;2023-02-05T07:14:21;7.80;99.90
40255;DHT22;25973;52.368;4.940;2023-02-05T07:16:47;7.70;99.90
40255;DHT22;25973;52.368;4.940;2023-02-05T07:19:12;7.70;99.90
40255;DHT22;25973;52.368;4.940;2023-02-05T07:21:38;7.70;99.90
40255;DHT22;25973;52.368;4.940;2023-02-05T07:24:04;7.70;99.90
40255;DHT22;25973;52.368;4.940;2023-02-05T07:26:29;7.70;99.90
40255;DHT22;25973;52.368;4.940;2023-02-05T07:28:55;7.60;99.90
40255;DHT22;25973;52.368;4.940;2023-02-05T07:31:21;7.60;99.90
40255;DHT22;25973;52.368;4.940;2023-02-05T07:33:47;7.70;99.90
40255;DHT22;25973;52.368;4.940;2023-02-05T07:36:15;7.70;99.90
40255;DHT22;25973;52.368;4.940;2023-02-05T07:38:41;7.70;99.90
40255;DHT22;25973;52.368;4.940;2023-02-05T07:41:09;7.70;99.90
40255;DHT22;25973;52.368;4.940;2023-02-05T07:43:35;7.70;99.90
40255;DHT22;25973;52.368;4.940;2023-02-05T07:46:04;7.70;99.90
40255;DHT22;25973;52.368;4.940;2023-02-05T07:48:30;7.70;99.90
40255;DHT22;25973;52.368;4.940;2023-02-05T07:50:55;7.80;99.90
40255;DHT22;25973;52.368;4.940;2023-02-05T07:53:21;7.80;99.90
40255;DHT22;25973;52.368;4.940;2023-02-05T07:55:47;7.80;99.90
40255;DHT22;25973;52.368;4.940;2023-02-05T07:58:12;7.80;99.90
40255;DHT22;25973;52.368;4.940;2023-02-05T08:00:38;7.80;99.90
40255;DHT22;25973;52.368;4.940;2023-02-05T08:03:04;7.90;99.90
40255;DHT22;25973;52.368;4.940;2023-02-05T08:05:30;7.90;99.90
40255;DHT22;25973;52.368;4.940;2023-02-05T08:07:55;7.90;99.90
40255;DHT22;25973;52.368;4.940;2023-02-05T08:10:21;7.90;99.90
40255;DHT22;25973;52.368;4.940;2023-02-05T08:12:46;7.90;99.90
40255;DHT22;25973;52.368;4.940;2023-02-05T08:15:12;7.90;99.90
40255;DHT22;25973;52.368;4.940;2023-02-05T08:17:38;8.00;99.90
40255;DHT22;25973;52.368;4.940;2023-02-05T08:20:04;8.00;99.90
40255;DHT22;25973;52.368;4.940;2023-02-05T08:22:34;8.00;99.90
40255;DHT22;25973;52.368;4.940;2023-02-05T08:25:00;8.10;99.90
40255;DHT22;25973;52.368;4.940;2023-02-05T08:27:26;8.10;99.90
40255;DHT22;25973;52.368;4.940;2023-02-05T08:29:52;8.20;99.90
40255;DHT22;25973;52.368;4.940;2023-02-05T08:32:17;8.20;99.90
40255;DHT22;25973;52.368;4.940;2023-02-05T08:34:43;8.30;99.90
40255;DHT22;25973;52.368;4.940;2023-02-05T08:37:09;8.40;99.90
40255;DHT22;25973;52.368;4.940;2023-02-05T08:39:35;8.50;99.90
40255;DHT22;25973;52.368;4.940;2023-02-05T08:42:02;8.60;99.90
40255;DHT22;25973;52.368;4.940;2023-02-05T08:44:27;8.70;99.90
40255;DHT22;25973;52.368;4.940;2023-02-05T08:46:53;8.70;99.90
40255;DHT22;25973;52.368;4.940;2023-02-05T08:49:19;8.90;99.90
40255;DHT22;25973;52.368;4.940;2023-02-05T08:51:44;9.00;99.90
40255;DHT22;25973;52.368;4.940;2023-02-05T08:54:10;9.10;99.90
40255;DHT22;25973;52.368;4.940;2023-02-05T08:56:38;9.20;99.90
40255;DHT22;25973;52.368;4.940;2023-02-05T08:59:05;9.30;99.90
40255;DHT22;25973;52.368;4.940;2023-02-05T09:01:30;9.40;99.90
40255;DHT22;25973;52.368;4.940;2023-02-05T09:03:56;9.40;99.90
40255;DHT22;25973;52.368;4.940;2023-02-05T09:06:22;9.40;99.90
40255;DHT22;25973;52.368;4.940;2023-02-05T09:08:47;9.40;99.90
40255;DHT22;25973;52.368;4.940;2023-02-05T09:11:13;9.40;99.90
40255;DHT22;25973;52.368;4.940;2023-02-05T09:13:39;9.40;99.90
40255;DHT22;25973;52.368;4.940;2023-02-05T09:16:05;9.40;99.90
40255;DHT22;25973;52.368;4.940;2023-02-05T09:18:31;9.40;99.90
40255;DHT22;25973;52.368;4.940;2023-02-05T09:20:56;9.40;99.90
40255;DHT22;25973;52.368;4.940;2023-02-05T09:23:22;9.40;99.90
40255;DHT22;25973;52.368;4.940;2023-02-05T09:25:48;9.40;99.90
40255;DHT22;25973;52.368;4.940;2023-02-05T09:28:14;9.30;99.90
40255;DHT22;25973;52.368;4.940;2023-02-05T09:30:42;9.30;99.90
40255;DHT22;25973;52.368;4.940;2023-02-05T09:33:10;9.40;99.90
40255;DHT22;25973;52.368;4.940;2023-02-05T09:35:36;9.40;99.90
40255;DHT22;25973;52.368;4.940;2023-02-05T09:38:02;9.40;99.90
40255;DHT22;25973;52.368;4.940;2023-02-05T09:41:13;9.30;99.90
40255;DHT22;25973;52.368;4.940;2023-02-05T09:43:57;9.20;99.90
40255;DHT22;25973;52.368;4.940;2023-02-05T09:49:20;9.30;99.90
40255;DHT22;25973;52.368;4.940;2023-02-05T09:51:50;9.30;99.90
40255;DHT22;25973;52.368;4.940;2023-02-05T09:54:27;9.40;99.90
40255;DHT22;25973;52.368;4.940;2023-02-05T09:57:02;9.50;99.90
40255;DHT22;25973;52.368;4.940;2023-02-05T09:59:28;9.60;99.90
40255;DHT22;25973;52.368;4.940;2023-02-05T10:01:58;9.70;99.90
40255;DHT22;25973;52.368;4.940;2023-02-05T10:04:25;9.80;99.90
40255;DHT22;25973;52.368;4.940;2023-02-05T10:10:15;9.90;99.90
40255;DHT22;25973;52.368;4.940;2023-02-05T10:18:32;10.70;99.90
40255;DHT22;25973;52.368;4.940;2023-02-05T10:26:45;10.90;99.90
40255;DHT22;25973;52.368;4.940;2023-02-05T10:29:48;10.70;99.90
40255;DHT22;25973;52.368;4.940;2023-02-05T10:32:21;10.60;99.90
40255;DHT22;25973;52.368;4.940;2023-02-05T10:35:17;10.60;99.90
40255;DHT22;25973;52.368;4.940;2023-02-05T10:37:51;10.50;99.90
40255;DHT22;25973;52.368;4.940;2023-02-05T10:40:21;10.50;99.90
40255;DHT22;25973;52.368;4.940;2023-02-05T10:43:13;10.30;99.90
40255;DHT22;25973;52.368;4.940;2023-02-05T10:45:42;10.10;99.90
40255;DHT22;25973;52.368;4.940;2023-02-05T10:51:10;9.90;99.90
40255;DHT22;25973;52.368;4.940;2023-02-05T10:53:38;9.80;99.90
40255;DHT22;25973;52.368;4.940;2023-02-05T10:56:05;9.80;99.90
40255;DHT22;25973;52.368;4.940;2023-02-05T11:01:18;9.70;99.90
40255;DHT22;25973;52.368;4.940;2023-02-05T11:03:52;9.70;99.90
40255;DHT22;25973;52.368;4.940;2023-02-05T11:06:20;9.70;99.90
40255;DHT22;25973;52.368;4.940;2023-02-05T11:08:46;9.70;99.90
40255;DHT22;25973;52.368;4.940;2023-02-05T11:11:22;9.70;99.90
40255;DHT22;25973;52.368;4.940;2023-02-05T11:13:58;9.70;99.90
40255;DHT22;25973;52.368;4.940;2023-02-05T11:16:34;9.70;99.90
40255;DHT22;25973;52.368;4.940;2023-02-05T11:19:01;9.70;99.90
40255;DHT22;25973;52.368;4.940;2023-02-05T11:24:25;9.60;99.90
40255;DHT22;25973;52.368;4.940;2023-02-05T11:29:56;9.60;99.90
40255;DHT22;25973;52.368;4.940;2023-02-05T11:35:40;9.70;99.90
40255;DHT22;25973;52.368;4.940;2023-02-05T11:38:14;9.80;99.90
40255;DHT22;25973;52.368;4.940;2023-02-05T11:40:53;9.90;99.90
40255;DHT22;25973;52.368;4.940;2023-02-05T11:45:50;9.90;99.90
40255;DHT22;25973;52.368;4.940;2023-02-05T11:48:30;9.90;99.90
40255;DHT22;25973;52.368;4.940;2023-02-05T11:50:57;9.80;99.90
40255;DHT22;25973;52.368;4.940;2023-02-05T11:53:23;9.80;99.90
40255;DHT22;25973;52.368;4.940;2023-02-05T11:56:10;9.70;99.90
40255;DHT22;25973;52.368;4.940;2023-02-05T11:58:37;9.60;99.90
40255;DHT22;25973;52.368;4.940;2023-02-05T12:01:05;9.60;99.90
40255;DHT22;25973;52.368;4.940;2023-02-05T12:03:33;9.60;99.90
40255;DHT22;25973;52.368;4.940;2023-02-05T12:06:08;9.60;99.90
40255;DHT22;25973;52.368;4.940;2023-02-05T12:08:43;9.70;99.90
40255;DHT22;25973;52.368;4.940;2023-02-05T12:14:06;9.70;99.90
40255;DHT22;25973;52.368;4.940;2023-02-05T12:19:24;9.70;99.90
40255;DHT22;25973;52.368;4.940;2023-02-05T12:22:43;9.60;99.90
40255;DHT22;25973;52.368;4.940;2023-02-05T12:30:29;9.60;99.90
40255;DHT22;25973;52.368;4.940;2023-02-05T12:38:59;9.70;99.90
40255;DHT22;25973;52.368;4.940;2023-02-05T12:43:45;9.80;99.90
40255;DHT22;25973;52.368;4.940;2023-02-05T12:57:10;9.80;99.90
40255;DHT22;25973;52.368;4.940;2023-02-05T12:59:49;9.80;99.90
40255;DHT22;25973;52.368;4.940;2023-02-05T13:02:18;9.80;99.90
40255;DHT22;25973;52.368;4.940;2023-02-05T13:07:47;9.80;99.90
40255;DHT22;25973;52.368;4.940;2023-02-05T13:10:33;9.70;99.90
40255;DHT22;25973;52.368;4.940;2023-02-05T13:13:03;9.70;99.90
40255;DHT22;25973;52.368;4.940;2023-02-05T13:15:40;9.80;99.90
40255;DHT22;25973;52.368;4.940;2023-02-05T13:20:48;9.80;99.90
40255;DHT22;25973;52.368;4.940;2023-02-05T13:23:34;9.80;99.90
40255;DHT22;25973;52.368;4.940;2023-02-05T13:26:27;9.80;99.90
40255;DHT22;25973;52.368;4.940;2023-02-05T13:29:14;9.80;99.90
40255;DHT22;25973;52.368;4.940;2023-02-05T13:31:45;9.80;99.90
40255;DHT22;25973;52.368;4.940;2023-02-05T13:34:14;9.70;99.90
40255;DHT22;25973;52.368;4.940;2023-02-05T13:36:58;9.70;99.90
40255;DHT22;25973;52.368;4.940;2023-02-05T13:43:20;9.60;99.90
40255;DHT22;25973;52.368;4.940;2023-02-05T13:49:16;9.50;99.90
40255;DHT22;25973;52.368;4.940;2023-02-05T13:57:22;9.40;99.90
40255;DHT22;25973;52.368;4.940;2023-02-05T13:59:56;9.50;99.90
40255;DHT22;25973;52.368;4.940;2023-02-05T14:02:32;9.50;99.90
40255;DHT22;25973;52.368;4.940;2023-02-05T14:04:59;9.50;99.90
40255;DHT22;25973;52.368;4.940;2023-02-05T14:09:57;9.50;99.90
40255;DHT22;25973;52.368;4.940;2023-02-05T14:12:35;9.50;99.90
40255;DHT22;25973;52.368;4.940;2023-02-05T14:15:22;9.50;99.90
40255;DHT22;25973;52.368;4.940;2023-02-05T14:17:52;9.40;99.90
40255;DHT22;25973;52.368;4.940;2023-02-05T14:22:53;9.50;99.90
40255;DHT22;25973;52.368;4.940;2023-02-05T14:39:17;9.50;99.90
40255;DHT22;25973;52.368;4.940;2023-02-05T14:41:52;9.50;99.90
40255;DHT22;25973;52.368;4.940;2023-02-05T14:47:03;9.40;99.90
40255;DHT22;25973;52.368;4.940;2023-02-05T14:52:00;9.40;99.90
40255;DHT22;25973;52.368;4.940;2023-02-05T14:54:30;9.30;99.90
40255;DHT22;25973;52.368;4.940;2023-02-05T14:57:17;9.30;99.90
40255;DHT22;25973;52.368;4.940;2023-02-05T15:00:00;9.20;99.90
40255;DHT22;25973;52.368;4.940;2023-02-05T15:02:51;9.20;99.90
40255;DHT22;25973;52.368;4.940;2023-02-05T15:05:28;9.20;99.90
40255;DHT22;25973;52.368;4.940;2023-02-05T15:13:31;9.10;99.90
40255;DHT22;25973;52.368;4.940;2023-02-05T15:18:38;9.10;99.90
40255;DHT22;25973;52.368;4.940;2023-02-05T15:21:05;9.00;99.90
40255;DHT22;25973;52.368;4.940;2023-02-05T15:23:39;9.00;99.90
40255;DHT22;25973;52.368;4.940;2023-02-05T15:26:16;8.90;99.90
40255;DHT22;25973;52.368;4.940;2023-02-05T15:29:46;8.90;99.90
40255;DHT22;25973;52.368;4.940;2023-02-05T15:31:55;8.90;99.90
40255;DHT22;25973;52.368;4.940;2023-02-05T15:42:11;8.70;99.90
40255;DHT22;25973;52.368;4.940;2023-02-05T15:44:38;8.70;99.90
40255;DHT22;25973;52.368;4.940;2023-02-05T15:47:09;8.70;99.90
40255;DHT22;25973;52.368;4.940;2023-02-05T15:49:42;8.60;99.90
40255;DHT22;25973;52.368;4.940;2023-02-05T15:52:20;8.60;99.90
40255;DHT22;25973;52.368;4.940;2023-02-05T15:54:46;8.60;99.90
40255;DHT22;25973;52.368;4.940;2023-02-05T15:57:22;8.60;99.90
40255;DHT22;25973;52.368;4.940;2023-02-05T15:59:49;8.60;99.90
40255;DHT22;25973;52.368;4.940;2023-02-05T16:02:17;8.60;99.90
40255;DHT22;25973;52.368;4.940;2023-02-05T16:04:52;8.60;99.90
40255;DHT22;25973;52.368;4.940;2023-02-05T16:07:26;8.60;99.90
40255;DHT22;25973;52.368;4.940;2023-02-05T16:10:00;8.50;99.90
40255;DHT22;25973;52.368;4.940;2023-02-05T16:12:26;8.50;99.90
40255;DHT22;25973;52.368;4.940;2023-02-05T16:15:02;8.50;99.90
40255;DHT22;25973;52.368;4.940;2023-02-05T16:17:38;8.40;99.90
40255;DHT22;25973;52.368;4.940;2023-02-05T16:20:19;8.40;99.90
40255;DHT22;25973;52.368;4.940;2023-02-05T16:22:54;8.40;99.90
40255;DHT22;25973;52.368;4.940;2023-02-05T16:28:06;8.40;99.90
40255;DHT22;25973;52.368;4.940;2023-02-05T16:30:42;8.40;99.90
40255;DHT22;25973;52.368;4.940;2023-02-05T16:33:31;8.40;99.90
40255;DHT22;25973;52.368;4.940;2023-02-05T16:35:59;8.30;99.90
40255;DHT22;25973;52.368;4.940;2023-02-05T16:38:26;8.30;99.90
40255;DHT22;25973;52.368;4.940;2023-02-05T16:40:54;8.20;99.90
40255;DHT22;25973;52.368;4.940;2023-02-05T16:48:31;8.20;99.90
40255;DHT22;25973;52.368;4.940;2023-02-05T16:50:57;8.10;99.90
40255;DHT22;25973;52.368;4.940;2023-02-05T16:53:35;8.20;99.90
40255;DHT22;25973;52.368;4.940;2023-02-05T16:56:16;8.20;99.90
40255;DHT22;25973;52.368;4.940;2023-02-05T16:58:56;8.20;99.90
40255;DHT22;25973;52.368;4.940;2023-02-05T17:01:26;8.20;99.90
40255;DHT22;25973;52.368;4.940;2023-02-05T17:03:53;8.20;99.90
40255;DHT22;25973;52.368;4.940;2023-02-05T17:06:20;8.20;99.90
40255;DHT22;25973;52.368;4.940;2023-02-05T17:08:53;8.20;99.90
40255;DHT22;25973;52.368;4.940;2023-02-05T17:11:40;8.10;99.90
40255;DHT22;25973;52.368;4.940;2023-02-05T17:14:20;8.00;99.90
40255;DHT22;25973;52.368;4.940;2023-02-05T17:16:59;8.00;99.90
40255;DHT22;25973;52.368;4.940;2023-02-05T17:19:30;8.00;99.90
40255;DHT22;25973;52.368;4.940;2023-02-05T17:24:41;7.90;99.90
40255;DHT22;25973;52.368;4.940;2023-02-05T17:27:12;7.90;99.90
40255;DHT22;25973;52.368;4.940;2023-02-05T17:29:38;7.90;99.90
40255;DHT22;25973;52.368;4.940;2023-02-05T17:32:04;7.90;99.90
40255;DHT22;25973;52.368;4.940;2023-02-05T17:34:30;7.90;99.90
40255;DHT22;25973;52.368;4.940;2023-02-05T17:36:55;7.90;99.90
40255;DHT22;25973;52.368;4.940;2023-02-05T17:39:21;7.90;99.90
40255;DHT22;25973;52.368;4.940;2023-02-05T17:41:46;7.90;99.90
40255;DHT22;25973;52.368;4.940;2023-02-05T17:44:33;7.90;99.90
40255;DHT22;25973;52.368;4.940;2023-02-05T17:47:04;7.90;99.90
40255;DHT22;25973;52.368;4.940;2023-02-05T17:49:30;7.80;99.90
40255;DHT22;25973;52.368;4.940;2023-02-05T17:51:56;7.80;99.90
40255;DHT22;25973;52.368;4.940;2023-02-05T17:54:23;7.80;99.90
40255;DHT22;25973;52.368;4.940;2023-02-05T17:56:53;7.80;99.90
40255;DHT22;25973;52.368;4.940;2023-02-05T17:59:22;7.70;99.90
40255;DHT22;25973;52.368;4.940;2023-02-05T18:01:49;7.70;99.90
40255;DHT22;25973;52.368;4.940;2023-02-05T18:04:15;7.70;99.90
40255;DHT22;25973;52.368;4.940;2023-02-05T18:06:43;7.60;99.90
40255;DHT22;25973;52.368;4.940;2023-02-05T18:09:09;7.60;99.90
40255;DHT22;25973;52.368;4.940;2023-02-05T18:11:35;7.60;99.90
40255;DHT22;25973;52.368;4.940;2023-02-05T18:14:01;7.60;99.90
40255;DHT22;25973;52.368;4.940;2023-02-05T18:16:26;7.60;99.90
40255;DHT22;25973;52.368;4.940;2023-02-05T18:18:52;7.60;99.90
40255;DHT22;25973;52.368;4.940;2023-02-05T18:21:18;7.60;99.90
40255;DHT22;25973;52.368;4.940;2023-02-05T18:23:46;7.60;99.90
40255;DHT22;25973;52.368;4.940;2023-02-05T18:26:12;7.60;99.90
40255;DHT22;25973;52.368;4.940;2023-02-05T18:28:37;7.60;99.90
40255;DHT22;25973;52.368;4.940;2023-02-05T18:31:06;7.60;99.90
40255;DHT22;25973;52.368;4.940;2023-02-05T18:33:33;7.60;99.90
40255;DHT22;25973;52.368;4.940;2023-02-05T18:36:06;7.50;99.90
40255;DHT22;25973;52.368;4.940;2023-02-05T18:38:33;7.60;99.90
40255;DHT22;25973;52.368;4.940;2023-02-05T18:41:09;7.60;99.90
40255;DHT22;25973;52.368;4.940;2023-02-05T18:43:35;7.50;99.90
40255;DHT22;25973;52.368;4.940;2023-02-05T18:46:09;7.50;99.90